TAR745 EGLL-EDDF
Flight info
| Callsign | TAR745 |
|---|---|
| Flight time | 1h 15m |
| Altitude | 35000 |
| Route | BPK Q295 MATCH DCT REDFA DCT TACHA DCT NOLRU DCT DIXAT DIXAT1A |
| Aircraft | A320/M-SDE3FGHIRWY/LB1 |
Departure
| Time | 2026-05-06 17:18 |
|---|---|
| Airport | London Heathrow Airport (EGLL) |
Arrival
| Time | 2026-05-06 18:33 |
|---|---|
| Airport | Frankfurt Main Airport (EDDF) |
| Time | Latitude | Longitude | Altitude | Speed | Heading |
|---|---|---|---|---|---|
| 2026-05-06 16:47 | 51.47342 | -0.44387 | 85 ft | 0 kts | 88° |
| 2026-05-06 16:59 | 51.47342 | -0.44404 | 85 ft | 3 kts | 88° |
| 2026-05-06 16:59 | 51.47341 | -0.44438 | 86 ft | 3 kts | 88° |
| 2026-05-06 16:59 | 51.47341 | -0.44460 | 86 ft | 3 kts | 88° |
| 2026-05-06 17:00 | 51.47340 | -0.44493 | 86 ft | 3 kts | 88° |
| 2026-05-06 17:00 | 51.47340 | -0.44527 | 87 ft | 3 kts | 88° |
| 2026-05-06 17:00 | 51.47340 | -0.44548 | 87 ft | 2 kts | 149° |
| 2026-05-06 17:00 | 51.47353 | -0.44557 | 89 ft | 0 kts | 179° |
| 2026-05-06 17:02 | 51.47350 | -0.44556 | 87 ft | 3 kts | 179° |
| 2026-05-06 17:02 | 51.47334 | -0.44556 | 88 ft | 2 kts | 179° |
| 2026-05-06 17:03 | 51.47301 | -0.44555 | 85 ft | 9 kts | 179° |
| 2026-05-06 17:03 | 51.47222 | -0.44554 | 85 ft | 5 kts | 179° |
| 2026-05-06 17:03 | 51.47200 | -0.44553 | 88 ft | 0 kts | 179° |
| 2026-05-06 17:04 | 51.47200 | -0.44554 | 87 ft | 0 kts | 185° |
| 2026-05-06 17:04 | 51.47197 | -0.44544 | 89 ft | 1 kts | 111° |
| 2026-05-06 17:04 | 51.47233 | -0.44513 | 88 ft | 11 kts | 346° |
| 2026-05-06 17:05 | 51.47265 | -0.44552 | 85 ft | 3 kts | 350° |
| 2026-05-06 17:05 | 51.47280 | -0.44553 | 88 ft | 1 kts | 359° |
| 2026-05-06 17:05 | 51.47284 | -0.44553 | 88 ft | 0 kts | 359° |
| 2026-05-06 17:06 | 51.47299 | -0.44554 | 85 ft | 6 kts | 358° |
| 2026-05-06 17:06 | 51.47352 | -0.44556 | 85 ft | 8 kts | 359° |
| 2026-05-06 17:06 | 51.47413 | -0.44559 | 85 ft | 9 kts | 358° |
| 2026-05-06 17:06 | 51.47481 | -0.44581 | 89 ft | 11 kts | 327° |
| 2026-05-06 17:07 | 51.47509 | -0.44693 | 85 ft | 12 kts | 273° |
| 2026-05-06 17:07 | 51.47509 | -0.44824 | 89 ft | 11 kts | 265° |
| 2026-05-06 17:07 | 51.47507 | -0.44936 | 85 ft | 10 kts | 270° |
| 2026-05-06 17:07 | 51.47507 | -0.45116 | 86 ft | 23 kts | 270° |
| 2026-05-06 17:08 | 51.47507 | -0.45431 | 88 ft | 32 kts | 271° |
| 2026-05-06 17:08 | 51.47513 | -0.45748 | 87 ft | 26 kts | 275° |
| 2026-05-06 17:08 | 51.47517 | -0.46041 | 85 ft | 27 kts | 269° |
| 2026-05-06 17:08 | 51.47517 | -0.46343 | 85 ft | 27 kts | 270° |
| 2026-05-06 17:09 | 51.47517 | -0.46596 | 85 ft | 14 kts | 269° |
| 2026-05-06 17:09 | 51.47512 | -0.46744 | 86 ft | 12 kts | 258° |
| 2026-05-06 17:09 | 51.47490 | -0.46864 | 89 ft | 10 kts | 238° |
| 2026-05-06 17:09 | 51.47431 | -0.46891 | 85 ft | 9 kts | 171° |
| 2026-05-06 17:10 | 51.47377 | -0.46876 | 89 ft | 7 kts | 170° |
| 2026-05-06 17:10 | 51.47331 | -0.46871 | 85 ft | 7 kts | 178° |
| 2026-05-06 17:10 | 51.47235 | -0.46869 | 85 ft | 16 kts | 179° |
| 2026-05-06 17:10 | 51.47151 | -0.46868 | 85 ft | 6 kts | 180° |
| 2026-05-06 17:11 | 51.47116 | -0.46868 | 85 ft | 4 kts | 180° |
| 2026-05-06 17:11 | 51.47086 | -0.46868 | 85 ft | 4 kts | 180° |
| 2026-05-06 17:11 | 51.47057 | -0.46868 | 85 ft | 7 kts | 180° |
| 2026-05-06 17:11 | 51.46977 | -0.46868 | 85 ft | 14 kts | 180° |
| 2026-05-06 17:12 | 51.46857 | -0.46863 | 85 ft | 18 kts | 178° |
| 2026-05-06 17:12 | 51.46776 | -0.46865 | 85 ft | 11 kts | 194° |
| 2026-05-06 17:12 | 51.46747 | -0.46996 | 85 ft | 16 kts | 270° |
| 2026-05-06 17:12 | 51.46747 | -0.47202 | 89 ft | 21 kts | 270° |
| 2026-05-06 17:13 | 51.46747 | -0.47414 | 87 ft | 14 kts | 270° |
| 2026-05-06 17:13 | 51.46747 | -0.47527 | 87 ft | 9 kts | 268° |
| 2026-05-06 17:13 | 51.46745 | -0.47626 | 85 ft | 8 kts | 268° |
| 2026-05-06 17:13 | 51.46744 | -0.47710 | 85 ft | 7 kts | 269° |
| 2026-05-06 17:14 | 51.46744 | -0.47785 | 85 ft | 6 kts | 269° |
| 2026-05-06 17:14 | 51.46744 | -0.47796 | 85 ft | 0 kts | 268° |
| 2026-05-06 17:14 | 51.46744 | -0.47802 | 85 ft | 3 kts | 270° |
| 2026-05-06 17:14 | 51.46744 | -0.47894 | 85 ft | 10 kts | 270° |
| 2026-05-06 17:15 | 51.46744 | -0.47991 | 85 ft | 8 kts | 270° |
| 2026-05-06 17:15 | 51.46744 | -0.48070 | 85 ft | 6 kts | 268° |
| 2026-05-06 17:15 | 51.46742 | -0.48133 | 85 ft | 5 kts | 267° |
| 2026-05-06 17:15 | 51.46730 | -0.48186 | 90 ft | 9 kts | 237° |
| 2026-05-06 17:16 | 51.46655 | -0.48216 | 86 ft | 10 kts | 181° |
| 2026-05-06 17:16 | 51.46589 | -0.48217 | 86 ft | 9 kts | 179° |
| 2026-05-06 17:16 | 51.46532 | -0.48214 | 86 ft | 8 kts | 173° |
| 2026-05-06 17:16 | 51.46490 | -0.48179 | 88 ft | 7 kts | 129° |
| 2026-05-06 17:17 | 51.46482 | -0.48107 | 85 ft | 7 kts | 89° |
| 2026-05-06 17:17 | 51.46483 | -0.48020 | 85 ft | 13 kts | 89° |
| 2026-05-06 17:17 | 51.46487 | -0.47422 | 85 ft | 96 kts | 89° |
| 2026-05-06 17:17 | 51.46492 | -0.45956 | 83 ft | 163 kts | 88° |
| 2026-05-06 17:18 | 51.46501 | -0.44050 | 779 ft | 170 kts | 88° |
| 2026-05-06 17:18 | 51.46529 | -0.42154 | 1781 ft | 169 kts | 79° |
| 2026-05-06 17:18 | 51.46928 | -0.40412 | 2416 ft | 171 kts | 53° |
| 2026-05-06 17:18 | 51.47734 | -0.38852 | 2665 ft | 193 kts | 47° |
| 2026-05-06 17:19 | 51.48651 | -0.37124 | 2942 ft | 213 kts | 48° |
| 2026-05-06 17:19 | 51.49664 | -0.35203 | 3254 ft | 238 kts | 49° |
| 2026-05-06 17:19 | 51.50770 | -0.33088 | 3856 ft | 252 kts | 49° |
| 2026-05-06 17:19 | 51.51899 | -0.30880 | 4683 ft | 258 kts | 53° |
| 2026-05-06 17:20 | 51.52680 | -0.28260 | 5492 ft | 265 kts | 69° |
| 2026-05-06 17:20 | 51.53278 | -0.25421 | 5906 ft | 269 kts | 69° |
| 2026-05-06 17:20 | 51.54100 | -0.22758 | 6000 ft | 266 kts | 52° |
| 2026-05-06 17:20 | 51.55413 | -0.20689 | 6007 ft | 264 kts | 33° |
| 2026-05-06 17:21 | 51.57059 | -0.19442 | 6004 ft | 263 kts | 19° |
| 2026-05-06 17:21 | 51.58764 | -0.18372 | 6060 ft | 263 kts | 20° |
| 2026-05-06 17:21 | 51.60498 | -0.17448 | 6081 ft | 264 kts | 20° |
| 2026-05-06 17:21 | 51.62057 | -0.15840 | 6775 ft | 270 kts | 44° |
| 2026-05-06 17:22 | 51.63227 | -0.13454 | 7625 ft | 273 kts | 53° |
| 2026-05-06 17:22 | 51.64337 | -0.10946 | 8428 ft | 277 kts | 53° |
| 2026-05-06 17:22 | 51.65454 | -0.08377 | 9200 ft | 282 kts | 53° |
| 2026-05-06 17:22 | 51.66582 | -0.05758 | 9968 ft | 287 kts | 53° |
| 2026-05-06 17:23 | 51.67742 | -0.03061 | 10442 ft | 303 kts | 53° |
| 2026-05-06 17:23 | 51.68989 | -0.00167 | 10636 ft | 326 kts | 53° |
| 2026-05-06 17:23 | 51.70325 | 0.02940 | 10800 ft | 349 kts | 54° |
| 2026-05-06 17:23 | 51.71745 | 0.06245 | 11052 ft | 365 kts | 54° |
| 2026-05-06 17:24 | 51.73201 | 0.09642 | 11632 ft | 371 kts | 54° |
| 2026-05-06 17:24 | 51.74654 | 0.13041 | 12300 ft | 375 kts | 54° |
| 2026-05-06 17:24 | 51.76112 | 0.16559 | 12938 ft | 380 kts | 58° |
| 2026-05-06 17:24 | 51.77242 | 0.20443 | 13587 ft | 386 kts | 69° |
| 2026-05-06 17:25 | 51.77921 | 0.24655 | 14155 ft | 390 kts | 79° |
| 2026-05-06 17:25 | 51.78447 | 0.28977 | 14728 ft | 393 kts | 77° |
| 2026-05-06 17:25 | 51.79088 | 0.33279 | 15299 ft | 396 kts | 75° |
| 2026-05-06 17:25 | 51.79804 | 0.37602 | 15864 ft | 399 kts | 74° |
| 2026-05-06 17:26 | 51.80546 | 0.41927 | 16411 ft | 402 kts | 73° |
| 2026-05-06 17:26 | 51.81291 | 0.46298 | 16955 ft | 405 kts | 74° |
| 2026-05-06 17:26 | 51.82024 | 0.50708 | 17502 ft | 408 kts | 75° |
| 2026-05-06 17:26 | 51.82742 | 0.55151 | 18018 ft | 411 kts | 75° |
| 2026-05-06 17:27 | 51.83452 | 0.59652 | 18496 ft | 414 kts | 75° |
| 2026-05-06 17:27 | 51.84154 | 0.64174 | 18936 ft | 417 kts | 75° |
| 2026-05-06 17:27 | 51.84860 | 0.68742 | 19356 ft | 420 kts | 75° |
| 2026-05-06 17:27 | 51.85573 | 0.73348 | 19785 ft | 423 kts | 75° |
| 2026-05-06 17:28 | 51.86292 | 0.77989 | 20216 ft | 426 kts | 75° |
| 2026-05-06 17:28 | 51.87017 | 0.82655 | 20649 ft | 429 kts | 76° |
| 2026-05-06 17:28 | 51.87746 | 0.87352 | 21070 ft | 432 kts | 76° |
| 2026-05-06 17:28 | 51.88476 | 0.92068 | 21484 ft | 434 kts | 76° |
| 2026-05-06 17:29 | 51.89210 | 0.96833 | 21900 ft | 437 kts | 76° |
| 2026-05-06 17:29 | 51.89943 | 1.01619 | 22304 ft | 440 kts | 76° |
| 2026-05-06 17:29 | 51.90670 | 1.06376 | 22687 ft | 442 kts | 76° |
| 2026-05-06 17:29 | 51.91411 | 1.11228 | 23063 ft | 445 kts | 76° |
| 2026-05-06 17:30 | 51.92156 | 1.16108 | 23447 ft | 448 kts | 76° |
| 2026-05-06 17:30 | 51.92903 | 1.21019 | 23774 ft | 450 kts | 76° |
| 2026-05-06 17:30 | 51.93649 | 1.25960 | 24093 ft | 453 kts | 76° |
| 2026-05-06 17:30 | 51.94393 | 1.30926 | 24421 ft | 455 kts | 77° |
| 2026-05-06 17:31 | 51.95139 | 1.35919 | 24740 ft | 457 kts | 77° |
| 2026-05-06 17:31 | 51.95889 | 1.40932 | 25060 ft | 459 kts | 77° |
| 2026-05-06 17:31 | 51.96640 | 1.45964 | 25361 ft | 461 kts | 77° |
| 2026-05-06 17:31 | 51.97392 | 1.51023 | 25656 ft | 463 kts | 77° |
| 2026-05-06 17:32 | 51.98145 | 1.56102 | 25936 ft | 465 kts | 77° |
| 2026-05-06 17:32 | 51.98903 | 1.61216 | 26217 ft | 467 kts | 77° |
| 2026-05-06 17:32 | 51.99662 | 1.66353 | 26491 ft | 469 kts | 77° |
| 2026-05-06 17:32 | 52.00421 | 1.71498 | 26771 ft | 470 kts | 77° |
| 2026-05-06 17:33 | 52.01180 | 1.76681 | 27044 ft | 472 kts | 77° |
| 2026-05-06 17:33 | 52.01936 | 1.81876 | 27308 ft | 474 kts | 77° |
| 2026-05-06 17:33 | 52.02694 | 1.87084 | 27639 ft | 474 kts | 77° |
| 2026-05-06 17:33 | 52.03447 | 1.92287 | 28036 ft | 473 kts | 77° |
| 2026-05-06 17:34 | 52.04196 | 1.97479 | 28421 ft | 472 kts | 77° |
| 2026-05-06 17:34 | 52.04944 | 2.02670 | 28804 ft | 471 kts | 77° |
| 2026-05-06 17:34 | 52.05689 | 2.07845 | 29202 ft | 470 kts | 78° |
| 2026-05-06 17:34 | 52.06429 | 2.13019 | 29587 ft | 470 kts | 78° |
| 2026-05-06 17:35 | 52.07161 | 2.18182 | 29968 ft | 469 kts | 78° |
| 2026-05-06 17:35 | 52.07887 | 2.23341 | 30314 ft | 468 kts | 78° |
| 2026-05-06 17:35 | 52.08613 | 2.28498 | 30622 ft | 467 kts | 78° |
| 2026-05-06 17:36 | 52.10065 | 2.38780 | 31270 ft | 466 kts | 78° |
| 2026-05-06 17:36 | 52.10775 | 2.43843 | 31581 ft | 465 kts | 78° |
| 2026-05-06 17:36 | 52.11496 | 2.48975 | 31894 ft | 465 kts | 77° |
| 2026-05-06 17:36 | 52.12308 | 2.54058 | 32205 ft | 465 kts | 75° |
| 2026-05-06 17:37 | 52.13236 | 2.59105 | 32506 ft | 464 kts | 73° |
| 2026-05-06 17:37 | 52.14230 | 2.64099 | 32819 ft | 464 kts | 72° |
| 2026-05-06 17:37 | 52.15251 | 2.69085 | 33146 ft | 464 kts | 72° |
| 2026-05-06 17:37 | 52.16262 | 2.74063 | 33447 ft | 463 kts | 73° |
| 2026-05-06 17:38 | 52.17247 | 2.79051 | 33749 ft | 463 kts | 73° |
| 2026-05-06 17:38 | 52.18206 | 2.84061 | 34040 ft | 462 kts | 74° |
| 2026-05-06 17:38 | 52.19141 | 2.89055 | 34289 ft | 462 kts | 74° |
| 2026-05-06 17:38 | 52.20072 | 2.94073 | 34521 ft | 462 kts | 74° |
| 2026-05-06 17:39 | 52.21000 | 2.99087 | 34745 ft | 462 kts | 74° |
| 2026-05-06 17:39 | 52.21930 | 3.04104 | 34913 ft | 463 kts | 74° |
| 2026-05-06 17:39 | 52.23787 | 3.14271 | 34952 ft | 471 kts | 77° |
| 2026-05-06 17:40 | 52.24378 | 3.24835 | 34947 ft | 468 kts | 96° |
| 2026-05-06 17:40 | 52.22997 | 3.35125 | 34945 ft | 463 kts | 113° |
| 2026-05-06 17:41 | 52.20661 | 3.44930 | 34940 ft | 464 kts | 113° |
| 2026-05-06 17:41 | 52.18307 | 3.54714 | 34939 ft | 464 kts | 114° |
| 2026-05-06 17:42 | 52.15942 | 3.64496 | 34939 ft | 464 kts | 114° |
| 2026-05-06 17:42 | 52.13575 | 3.74268 | 34934 ft | 464 kts | 114° |
| 2026-05-06 17:43 | 52.11204 | 3.84028 | 34931 ft | 464 kts | 114° |
| 2026-05-06 17:43 | 52.08821 | 3.93772 | 34930 ft | 464 kts | 114° |
| 2026-05-06 17:44 | 52.06431 | 4.03506 | 34925 ft | 463 kts | 114° |
| 2026-05-06 17:44 | 52.04037 | 4.13225 | 34923 ft | 463 kts | 114° |
| 2026-05-06 17:45 | 52.01631 | 4.22938 | 34928 ft | 463 kts | 114° |
| 2026-05-06 17:45 | 51.99217 | 4.32612 | 34926 ft | 463 kts | 114° |
| 2026-05-06 17:46 | 51.97202 | 4.40644 | 34934 ft | 462 kts | 114° |
| 2026-05-06 17:46 | 51.94787 | 4.50313 | 34927 ft | 462 kts | 114° |
| 2026-05-06 17:47 | 51.91972 | 4.61506 | 34933 ft | 461 kts | 114° |
| 2026-05-06 17:47 | 51.89541 | 4.71118 | 34925 ft | 461 kts | 114° |
| 2026-05-06 17:48 | 51.87507 | 4.79096 | 34929 ft | 461 kts | 114° |
| 2026-05-06 17:48 | 51.85055 | 4.88668 | 34976 ft | 462 kts | 114° |
| 2026-05-06 17:49 | 51.82592 | 4.98272 | 34915 ft | 462 kts | 114° |
| 2026-05-06 17:49 | 51.80129 | 5.07865 | 34910 ft | 462 kts | 114° |
| 2026-05-06 17:50 | 51.77656 | 5.17461 | 34905 ft | 463 kts | 114° |
| 2026-05-06 17:50 | 51.75172 | 5.27048 | 34903 ft | 463 kts | 114° |
| 2026-05-06 17:51 | 51.72675 | 5.36609 | 34906 ft | 463 kts | 114° |
| 2026-05-06 17:51 | 51.70163 | 5.46174 | 34903 ft | 463 kts | 115° |
| 2026-05-06 17:52 | 51.67653 | 5.55737 | 34911 ft | 463 kts | 115° |
| 2026-05-06 17:52 | 51.65137 | 5.65285 | 34910 ft | 463 kts | 115° |
| 2026-05-06 17:53 | 51.62609 | 5.74805 | 34911 ft | 463 kts | 115° |
| 2026-05-06 17:53 | 51.60075 | 5.84324 | 34912 ft | 463 kts | 115° |
| 2026-05-06 17:54 | 51.57538 | 5.93832 | 34890 ft | 463 kts | 115° |
| 2026-05-06 17:54 | 51.54988 | 6.03345 | 34893 ft | 463 kts | 115° |
| 2026-05-06 17:55 | 51.52429 | 6.12820 | 34891 ft | 462 kts | 115° |
| 2026-05-06 17:55 | 51.49871 | 6.22296 | 34887 ft | 462 kts | 115° |
| 2026-05-06 17:56 | 51.47515 | 6.31619 | 34881 ft | 463 kts | 113° |
| 2026-05-06 17:56 | 51.45213 | 6.41251 | 34876 ft | 463 kts | 113° |
| 2026-05-06 17:57 | 51.42892 | 6.50867 | 34875 ft | 463 kts | 113° |
| 2026-05-06 17:57 | 51.40526 | 6.60465 | 34876 ft | 463 kts | 114° |
| 2026-05-06 17:58 | 51.38128 | 6.70042 | 34879 ft | 464 kts | 114° |
| 2026-05-06 17:58 | 51.35723 | 6.79624 | 34576 ft | 461 kts | 114° |
| 2026-05-06 17:59 | 51.34527 | 6.84384 | 34338 ft | 459 kts | 114° |
| 2026-05-06 17:59 | 51.33338 | 6.89121 | 34102 ft | 458 kts | 114° |
| 2026-05-06 17:59 | 51.32148 | 6.93848 | 33863 ft | 458 kts | 114° |
| 2026-05-06 17:59 | 51.30958 | 6.98567 | 33579 ft | 458 kts | 114° |
| 2026-05-06 18:00 | 51.29760 | 7.03285 | 33300 ft | 458 kts | 114° |
| 2026-05-06 18:00 | 51.28414 | 7.07883 | 33024 ft | 456 kts | 122° |
| 2026-05-06 18:00 | 51.26641 | 7.12054 | 32749 ft | 453 kts | 131° |
| 2026-05-06 18:00 | 51.24474 | 7.15688 | 32468 ft | 451 kts | 141° |
| 2026-05-06 18:01 | 51.22008 | 7.18663 | 32202 ft | 449 kts | 150° |
| 2026-05-06 18:01 | 51.19341 | 7.20993 | 31636 ft | 449 kts | 155° |
| 2026-05-06 18:01 | 51.16524 | 7.23235 | 30553 ft | 455 kts | 155° |
| 2026-05-06 18:01 | 51.13669 | 7.25481 | 29403 ft | 461 kts | 155° |
| 2026-05-06 18:02 | 51.10775 | 7.27754 | 28270 ft | 465 kts | 155° |
| 2026-05-06 18:02 | 51.07865 | 7.30091 | 27101 ft | 468 kts | 154° |
| 2026-05-06 18:02 | 51.04970 | 7.32469 | 25842 ft | 474 kts | 153° |
| 2026-05-06 18:02 | 51.02045 | 7.34903 | 25012 ft | 471 kts | 153° |
| 2026-05-06 18:03 | 50.99223 | 7.37264 | 24563 ft | 460 kts | 153° |
| 2026-05-06 18:03 | 50.96366 | 7.39644 | 23900 ft | 454 kts | 153° |
| 2026-05-06 18:03 | 50.93587 | 7.41945 | 23255 ft | 449 kts | 154° |
| 2026-05-06 18:03 | 50.90829 | 7.44215 | 22594 ft | 445 kts | 154° |
| 2026-05-06 18:04 | 50.88120 | 7.46426 | 22004 ft | 442 kts | 154° |
| 2026-05-06 18:04 | 50.85397 | 7.48642 | 21393 ft | 439 kts | 154° |
| 2026-05-06 18:04 | 50.82690 | 7.50846 | 20762 ft | 435 kts | 154° |
| 2026-05-06 18:04 | 50.80009 | 7.53028 | 20352 ft | 433 kts | 154° |
| 2026-05-06 18:05 | 50.77334 | 7.55203 | 19760 ft | 431 kts | 154° |
| 2026-05-06 18:05 | 50.74683 | 7.57358 | 19154 ft | 428 kts | 154° |
| 2026-05-06 18:05 | 50.72050 | 7.59501 | 18559 ft | 424 kts | 154° |
| 2026-05-06 18:05 | 50.69429 | 7.61633 | 17943 ft | 421 kts | 155° |
| 2026-05-06 18:06 | 50.66802 | 7.63762 | 17409 ft | 418 kts | 155° |
| 2026-05-06 18:06 | 50.64257 | 7.65821 | 16910 ft | 415 kts | 155° |
| 2026-05-06 18:06 | 50.61702 | 7.67883 | 16404 ft | 411 kts | 155° |
| 2026-05-06 18:06 | 50.59166 | 7.69928 | 15904 ft | 408 kts | 155° |
| 2026-05-06 18:07 | 50.56636 | 7.71971 | 15445 ft | 405 kts | 155° |
| 2026-05-06 18:07 | 50.54137 | 7.73985 | 14989 ft | 402 kts | 155° |
| 2026-05-06 18:07 | 50.51656 | 7.75977 | 14543 ft | 400 kts | 155° |
| 2026-05-06 18:07 | 50.49188 | 7.77959 | 14076 ft | 397 kts | 155° |
| 2026-05-06 18:08 | 50.46733 | 7.79931 | 13627 ft | 395 kts | 155° |
| 2026-05-06 18:08 | 50.44298 | 7.81907 | 13149 ft | 392 kts | 153° |
| 2026-05-06 18:08 | 50.42046 | 7.84317 | 12747 ft | 392 kts | 143° |
| 2026-05-06 18:08 | 50.39921 | 7.86976 | 12397 ft | 390 kts | 143° |
| 2026-05-06 18:09 | 50.37804 | 7.89616 | 12020 ft | 388 kts | 143° |
| 2026-05-06 18:09 | 50.35696 | 7.92232 | 11653 ft | 386 kts | 143° |
| 2026-05-06 18:09 | 50.33601 | 7.94823 | 11285 ft | 383 kts | 144° |
| 2026-05-06 18:09 | 50.31512 | 7.97396 | 10924 ft | 381 kts | 144° |
| 2026-05-06 18:10 | 50.29435 | 7.99954 | 10560 ft | 379 kts | 144° |
| 2026-05-06 18:10 | 50.27375 | 8.02516 | 10202 ft | 377 kts | 142° |
| 2026-05-06 18:10 | 50.25561 | 8.05402 | 9909 ft | 377 kts | 130° |
| 2026-05-06 18:10 | 50.23952 | 8.08697 | 9816 ft | 378 kts | 129° |
| 2026-05-06 18:11 | 50.22372 | 8.11921 | 9734 ft | 378 kts | 129° |
| 2026-05-06 18:11 | 50.20752 | 8.15201 | 9660 ft | 377 kts | 129° |
| 2026-05-06 18:11 | 50.19166 | 8.18402 | 9565 ft | 377 kts | 130° |
| 2026-05-06 18:11 | 50.17564 | 8.21628 | 9482 ft | 376 kts | 130° |
| 2026-05-06 18:12 | 50.15961 | 8.24843 | 9391 ft | 375 kts | 130° |
| 2026-05-06 18:12 | 50.14353 | 8.28062 | 9306 ft | 375 kts | 130° |
| 2026-05-06 18:12 | 50.12797 | 8.31321 | 9216 ft | 375 kts | 124° |
| 2026-05-06 18:12 | 50.11673 | 8.34993 | 8982 ft | 377 kts | 110° |
| 2026-05-06 18:13 | 50.11146 | 8.38939 | 8640 ft | 368 kts | 96° |
| 2026-05-06 18:13 | 50.11182 | 8.42869 | 8300 ft | 358 kts | 82° |
| 2026-05-06 18:13 | 50.11822 | 8.46570 | 8018 ft | 352 kts | 72° |
| 2026-05-06 18:13 | 50.12619 | 8.50157 | 7999 ft | 351 kts | 70° |
| 2026-05-06 18:14 | 50.13475 | 8.53722 | 8006 ft | 351 kts | 69° |
| 2026-05-06 18:14 | 50.14349 | 8.57267 | 8005 ft | 351 kts | 69° |
| 2026-05-06 18:14 | 50.15227 | 8.60820 | 8008 ft | 350 kts | 69° |
| 2026-05-06 18:14 | 50.16095 | 8.64373 | 8008 ft | 351 kts | 70° |
| 2026-05-06 18:15 | 50.16953 | 8.67930 | 8009 ft | 351 kts | 70° |
| 2026-05-06 18:15 | 50.17803 | 8.71497 | 8008 ft | 351 kts | 70° |
| 2026-05-06 18:15 | 50.18647 | 8.75063 | 8010 ft | 350 kts | 70° |
| 2026-05-06 18:15 | 50.19488 | 8.78625 | 8008 ft | 350 kts | 70° |
| 2026-05-06 18:16 | 50.20326 | 8.82185 | 8008 ft | 348 kts | 70° |
| 2026-05-06 18:16 | 50.21137 | 8.85635 | 8004 ft | 329 kts | 70° |
| 2026-05-06 18:16 | 50.21902 | 8.88894 | 8006 ft | 311 kts | 70° |
| 2026-05-06 18:16 | 50.22623 | 8.91969 | 7999 ft | 290 kts | 70° |
| 2026-05-06 18:17 | 50.23287 | 8.94799 | 8000 ft | 267 kts | 70° |
| 2026-05-06 18:17 | 50.23914 | 8.97476 | 7609 ft | 260 kts | 70° |
| 2026-05-06 18:17 | 50.24528 | 9.00113 | 7124 ft | 258 kts | 70° |
| 2026-05-06 18:17 | 50.25139 | 9.02736 | 6622 ft | 256 kts | 70° |
| 2026-05-06 18:18 | 50.25747 | 9.05353 | 6120 ft | 255 kts | 70° |
| 2026-05-06 18:18 | 50.26351 | 9.07949 | 5599 ft | 253 kts | 70° |
| 2026-05-06 18:18 | 50.26950 | 9.10522 | 5121 ft | 250 kts | 70° |
| 2026-05-06 18:18 | 50.27539 | 9.13059 | 4991 ft | 249 kts | 70° |
| 2026-05-06 18:19 | 50.28133 | 9.15615 | 5013 ft | 251 kts | 70° |
| 2026-05-06 18:19 | 50.28728 | 9.18178 | 5001 ft | 251 kts | 70° |
| 2026-05-06 18:19 | 50.29321 | 9.20746 | 5000 ft | 251 kts | 70° |
| 2026-05-06 18:19 | 50.29915 | 9.23310 | 4997 ft | 251 kts | 70° |
| 2026-05-06 18:20 | 50.30508 | 9.25872 | 5014 ft | 251 kts | 70° |
| 2026-05-06 18:20 | 50.31092 | 9.28403 | 4995 ft | 250 kts | 70° |
| 2026-05-06 18:20 | 50.31687 | 9.30995 | 5008 ft | 250 kts | 70° |
| 2026-05-06 18:20 | 50.32275 | 9.33559 | 4995 ft | 250 kts | 70° |
| 2026-05-06 18:21 | 50.32848 | 9.36089 | 4997 ft | 250 kts | 73° |
| 2026-05-06 18:21 | 50.32986 | 9.38761 | 4995 ft | 247 kts | 104° |
| 2026-05-06 18:21 | 50.32251 | 9.41125 | 4999 ft | 242 kts | 136° |
| 2026-05-06 18:21 | 50.30874 | 9.42507 | 4992 ft | 234 kts | 168° |
| 2026-05-06 18:22 | 50.29290 | 9.42523 | 5004 ft | 228 kts | 200° |
| 2026-05-06 18:22 | 50.27937 | 9.41282 | 5008 ft | 226 kts | 221° |
| 2026-05-06 18:22 | 50.26754 | 9.39667 | 4998 ft | 226 kts | 224° |
| 2026-05-06 18:22 | 50.25747 | 9.37813 | 4996 ft | 224 kts | 244° |
| 2026-05-06 18:23 | 50.25133 | 9.35569 | 5010 ft | 225 kts | 248° |
| 2026-05-06 18:23 | 50.24541 | 9.33310 | 5003 ft | 224 kts | 248° |
| 2026-05-06 18:23 | 50.23950 | 9.31056 | 5008 ft | 224 kts | 248° |
| 2026-05-06 18:23 | 50.23357 | 9.28798 | 5009 ft | 224 kts | 248° |
| 2026-05-06 18:24 | 50.22768 | 9.26558 | 4997 ft | 224 kts | 248° |
| 2026-05-06 18:24 | 50.22176 | 9.24312 | 4996 ft | 223 kts | 248° |
| 2026-05-06 18:24 | 50.21584 | 9.22064 | 5013 ft | 224 kts | 248° |
| 2026-05-06 18:24 | 50.20993 | 9.19823 | 5011 ft | 223 kts | 248° |
| 2026-05-06 18:25 | 50.20404 | 9.17589 | 4997 ft | 223 kts | 248° |
| 2026-05-06 18:25 | 50.19811 | 9.15345 | 5016 ft | 224 kts | 248° |
| 2026-05-06 18:25 | 50.19220 | 9.13103 | 5013 ft | 223 kts | 248° |
| 2026-05-06 18:25 | 50.18637 | 9.10892 | 4999 ft | 224 kts | 248° |
| 2026-05-06 18:26 | 50.18006 | 9.08681 | 4999 ft | 223 kts | 239° |
| 2026-05-06 18:26 | 50.17215 | 9.06588 | 5002 ft | 224 kts | 245° |
| 2026-05-06 18:26 | 50.16606 | 9.04325 | 5014 ft | 224 kts | 249° |
| 2026-05-06 18:26 | 50.16076 | 9.02071 | 5011 ft | 224 kts | 250° |
| 2026-05-06 18:27 | 50.15545 | 8.99786 | 5013 ft | 224 kts | 250° |
| 2026-05-06 18:27 | 50.15012 | 8.97503 | 5013 ft | 224 kts | 250° |
| 2026-05-06 18:27 | 50.14477 | 8.95217 | 5015 ft | 224 kts | 250° |
| 2026-05-06 18:27 | 50.13941 | 8.92929 | 5001 ft | 224 kts | 250° |
| 2026-05-06 18:28 | 50.13406 | 8.90649 | 5015 ft | 225 kts | 250° |
| 2026-05-06 18:28 | 50.12869 | 8.88362 | 4999 ft | 225 kts | 250° |
| 2026-05-06 18:28 | 50.12333 | 8.86083 | 4782 ft | 223 kts | 250° |
| 2026-05-06 18:28 | 50.11799 | 8.83811 | 4499 ft | 223 kts | 250° |
| 2026-05-06 18:29 | 50.11265 | 8.81548 | 4198 ft | 222 kts | 250° |
| 2026-05-06 18:29 | 50.10733 | 8.79292 | 3902 ft | 222 kts | 250° |
| 2026-05-06 18:29 | 50.10202 | 8.77042 | 3604 ft | 220 kts | 251° |
| 2026-05-06 18:29 | 50.09673 | 8.74803 | 3306 ft | 217 kts | 250° |
| 2026-05-06 18:30 | 50.09165 | 8.72658 | 3024 ft | 205 kts | 251° |
| 2026-05-06 18:30 | 50.08684 | 8.70628 | 2753 ft | 196 kts | 251° |
| 2026-05-06 18:30 | 50.08231 | 8.68717 | 2516 ft | 184 kts | 252° |
| 2026-05-06 18:30 | 50.07803 | 8.66914 | 2271 ft | 171 kts | 252° |
| 2026-05-06 18:31 | 50.07407 | 8.65247 | 2037 ft | 158 kts | 253° |
| 2026-05-06 18:31 | 50.07037 | 8.63692 | 1811 ft | 149 kts | 253° |
| 2026-05-06 18:31 | 50.06685 | 8.62215 | 1630 ft | 143 kts | 253° |
| 2026-05-06 18:31 | 50.06336 | 8.60782 | 1432 ft | 141 kts | 252° |
| 2026-05-06 18:32 | 50.06103 | 8.59841 | 1300 ft | 141 kts | 252° |
| 2026-05-06 18:32 | 50.05754 | 8.58410 | 1101 ft | 141 kts | 253° |
| 2026-05-06 18:32 | 50.05435 | 8.56979 | 860 ft | 141 kts | 253° |
| 2026-05-06 18:32 | 50.05100 | 8.55562 | 727 ft | 140 kts | 250° |
| 2026-05-06 18:33 | 50.04758 | 8.54140 | 513 ft | 138 kts | 252° |
| 2026-05-06 18:33 | 50.04415 | 8.52742 | 353 ft | 139 kts | 251° |
| 2026-05-06 18:33 | 50.04121 | 8.51425 | 331 ft | 99 kts | 248° |
| 2026-05-06 18:33 | 50.03951 | 8.50716 | 323 ft | 45 kts | 249° |
| 2026-05-06 18:34 | 50.03800 | 8.50331 | 320 ft | 40 kts | 225° |
| 2026-05-06 18:34 | 50.03640 | 8.50197 | 323 ft | 15 kts | 148° |
| 2026-05-06 18:34 | 50.03627 | 8.50267 | 324 ft | 4 kts | 85° |
| 2026-05-06 18:34 | 50.03631 | 8.50290 | 325 ft | 0 kts | 72° |
| 2026-05-06 18:35 | 50.03646 | 8.50360 | 325 ft | 13 kts | 72° |
| 2026-05-06 18:35 | 50.03672 | 8.50471 | 327 ft | 9 kts | 69° |
| 2026-05-06 18:35 | 50.03702 | 8.50588 | 329 ft | 16 kts | 69° |
| 2026-05-06 18:35 | 50.03751 | 8.50793 | 330 ft | 25 kts | 70° |
| 2026-05-06 18:36 | 50.03821 | 8.51086 | 335 ft | 33 kts | 69° |
| 2026-05-06 18:36 | 50.03914 | 8.51457 | 331 ft | 40 kts | 69° |
| 2026-05-06 18:36 | 50.04016 | 8.51897 | 337 ft | 45 kts | 70° |
| 2026-05-06 18:36 | 50.04133 | 8.52374 | 348 ft | 48 kts | 70° |
| 2026-05-06 18:37 | 50.04251 | 8.52874 | 358 ft | 50 kts | 71° |
| 2026-05-06 18:37 | 50.04371 | 8.53389 | 372 ft | 49 kts | 71° |
| 2026-05-06 18:37 | 50.04423 | 8.53917 | 375 ft | 51 kts | 83° |
| 2026-05-06 18:37 | 50.04455 | 8.54433 | 371 ft | 37 kts | 91° |
| 2026-05-06 18:38 | 50.04402 | 8.54662 | 365 ft | 14 kts | 122° |
| 2026-05-06 18:38 | 50.04328 | 8.54761 | 358 ft | 15 kts | 156° |
| 2026-05-06 18:38 | 50.04246 | 8.54811 | 357 ft | 9 kts | 159° |
| 2026-05-06 18:38 | 50.04184 | 8.54845 | 358 ft | 10 kts | 160° |
| 2026-05-06 18:39 | 50.04121 | 8.54880 | 356 ft | 9 kts | 160° |
| 2026-05-06 18:39 | 50.04064 | 8.54912 | 357 ft | 7 kts | 160° |
| 2026-05-06 18:39 | 50.04028 | 8.54934 | 356 ft | 4 kts | 159° |
| 2026-05-06 18:40 | 50.03984 | 8.54962 | 358 ft | 5 kts | 158° |
| 2026-05-06 18:40 | 50.03971 | 8.54970 | 359 ft | 0 kts | 158° |
| 2026-05-06 18:40 | 50.03967 | 8.54973 | 356 ft | 1 kts | 158° |
| 2026-05-06 18:40 | 50.03957 | 8.54978 | 356 ft | 0 kts | 159° |
| 2026-05-06 18:41 | 50.03952 | 8.54982 | 359 ft | 3 kts | 159° |
| 2026-05-06 18:41 | 50.03892 | 8.55017 | 356 ft | 14 kts | 159° |
| 2026-05-06 18:41 | 50.03854 | 8.55113 | 356 ft | 8 kts | 89° |
| 2026-05-06 18:41 | 50.03883 | 8.55252 | 355 ft | 18 kts | 69° |
| 2026-05-06 18:42 | 50.03926 | 8.55433 | 354 ft | 18 kts | 69° |
| 2026-05-06 18:42 | 50.03949 | 8.55532 | 350 ft | 7 kts | 69° |
| 2026-05-06 18:42 | 50.03966 | 8.55600 | 354 ft | 7 kts | 70° |
| 2026-05-06 18:42 | 50.03979 | 8.55657 | 351 ft | 5 kts | 70° |
| 2026-05-06 18:43 | 50.03989 | 8.55699 | 353 ft | 3 kts | 70° |
| 2026-05-06 18:43 | 50.03996 | 8.55727 | 358 ft | 2 kts | 69° |
| 2026-05-06 18:43 | 50.04011 | 8.55792 | 357 ft | 9 kts | 70° |
| 2026-05-06 18:43 | 50.04023 | 8.55844 | 354 ft | 1 kts | 70° |
| 2026-05-06 18:44 | 50.04025 | 8.55852 | 358 ft | 3 kts | 69° |
| 2026-05-06 18:44 | 50.04049 | 8.55932 | 354 ft | 9 kts | 57° |
| 2026-05-06 18:44 | 50.04089 | 8.55965 | 357 ft | 5 kts | 2° |
| 2026-05-06 18:44 | 50.04114 | 8.55957 | 359 ft | 4 kts | 343° |
| 2026-05-06 18:45 | 50.04179 | 8.55923 | 355 ft | 16 kts | 347° |
| 2026-05-06 18:45 | 50.04279 | 8.55955 | 357 ft | 18 kts | 3° |
| 2026-05-06 18:45 | 50.04343 | 8.55928 | 362 ft | 8 kts | 340° |
| 2026-05-06 18:45 | 50.04424 | 8.55909 | 360 ft | 11 kts | 10° |
| 2026-05-06 18:46 | 50.04510 | 8.55949 | 364 ft | 17 kts | 17° |
| 2026-05-06 18:46 | 50.04581 | 8.56077 | 358 ft | 14 kts | 67° |
| 2026-05-06 18:46 | 50.04613 | 8.56209 | 361 ft | 12 kts | 70° |
| 2026-05-06 18:46 | 50.04640 | 8.56324 | 357 ft | 11 kts | 69° |
| 2026-05-06 18:47 | 50.04662 | 8.56415 | 361 ft | 8 kts | 70° |
| 2026-05-06 18:47 | 50.04681 | 8.56490 | 362 ft | 7 kts | 68° |
| 2026-05-06 18:47 | 50.04703 | 8.56547 | 362 ft | 6 kts | 53° |
| 2026-05-06 18:47 | 50.04724 | 8.56591 | 360 ft | 5 kts | 53° |
| 2026-05-06 18:48 | 50.04741 | 8.56625 | 359 ft | 3 kts | 53° |
| 2026-05-06 18:48 | 50.04753 | 8.56651 | 361 ft | 3 kts | 53° |
| 2026-05-06 18:48 | 50.04754 | 8.56668 | 358 ft | 3 kts | 86° |
| 2026-05-06 18:48 | 50.04747 | 8.56702 | 358 ft | 1 kts | 112° |
| 2026-05-06 18:49 | 50.04741 | 8.56725 | 363 ft | 4 kts | 112° |
| 2026-05-06 18:49 | 50.04738 | 8.56735 | 361 ft | 0 kts | 112° |